Time;durP1;ratioP1;P1;durP2;ratioP2;P2;SDS_P1;SDS_P2;PMS_P1;PMS_P2;Temp;Humidity;BMP_temperature;BMP_pressure;BME280_temperature;BME280_humidity;BME280_pressure;Samples;Min_cycle;Max_cycle;Signal;HPM_P1;HPM_P2
2022/04/16 00:01:05;;;;;;;2.50;2.10;;;11.90;57.10;;;12.43;47.46;98584.94;5043615;28;20051;-44
2022/04/16 00:03:33;;;;;;;3.20;1.90;;;11.90;57.20;;;12.40;47.27;98580.72;5043344;28;20151;-44
2022/04/16 00:06:02;;;;;;;2.70;1.90;;;11.90;57.00;;;12.33;47.17;98579.66;5042638;28;20216;-47
2022/04/16 00:08:30;;;;;;;4.17;2.30;;;12.00;56.50;;;12.27;47.57;98582.06;5042062;28;20075;-45
2022/04/16 00:11:00;;;;;;;3.33;2.03;;;12.00;56.30;;;12.30;47.88;98581.78;5042975;28;20049;-45
2022/04/16 00:13:29;;;;;;;3.00;2.30;;;11.90;56.60;;;12.30;47.44;98576.44;5042823;28;20045;-45
2022/04/16 00:15:57;;;;;;;2.90;2.03;;;11.90;56.60;;;12.28;47.62;98579.25;5042486;28;20049;-46
2022/04/16 00:18:26;;;;;;;3.63;2.13;;;11.90;56.90;;;12.27;47.71;98577.59;5042641;28;20044;-47
2022/04/16 00:20:54;;;;;;;4.00;2.10;;;11.80;57.00;;;12.24;47.74;98571.69;5042753;28;20059;-46
2022/04/16 00:23:22;;;;;;;3.40;2.27;;;11.70;57.20;;;12.20;47.59;98569.31;5041670;28;20056;-44
2022/04/16 00:25:50;;;;;;;3.10;2.00;;;11.70;57.10;;;12.13;47.52;98570.91;5042169;28;20242;-47
2022/04/16 00:28:18;;;;;;;3.20;2.00;;;11.70;56.90;;;12.11;47.61;98572.03;5042737;28;20055;-45
2022/04/16 00:30:46;;;;;;;3.70;2.10;;;11.70;56.90;;;12.08;47.94;98575.84;5042562;28;20045;-45
2022/04/16 00:33:14;;;;;;;3.03;2.40;;;11.60;57.30;;;12.07;47.88;98570.66;5043126;28;20238;-44
2022/04/16 00:35:42;;;;;;;3.57;2.10;;;11.60;57.30;;;12.05;47.81;98561.97;5042087;28;20048;-47
2022/04/16 00:38:11;;;;;;;3.33;2.00;;;11.60;57.50;;;12.01;48.26;98572.09;5042935;28;20045;-45
2022/04/16 00:40:39;;;;;;;2.80;1.97;;;11.50;57.80;;;11.97;48.15;98565.38;5042554;28;20049;-45
2022/04/16 00:43:07;;;;;;;3.40;2.50;;;11.40;57.60;;;11.92;48.27;98571.16;5043006;28;20041;-48
2022/04/16 00:45:37;;;;;;;2.53;2.10;;;11.40;58.00;;;11.90;48.10;98569.59;5042009;28;20053;-43
2022/04/16 00:48:07;;;;;;;2.57;2.10;;;11.40;58.20;;;11.85;48.06;98567.34;5041636;28;20053;-45
2022/04/16 00:50:35;;;;;;;3.23;2.20;;;11.30;58.40;;;11.80;48.55;98564.28;5042048;28;20045;-47
2022/04/16 00:53:03;;;;;;;2.40;2.03;;;11.20;58.50;;;11.76;48.66;98573.56;5042986;28;20049;-44
2022/04/16 00:55:36;;;;;;;2.73;2.37;;;11.10;58.80;;;11.69;48.50;98578.66;5041826;28;20047;-44
2022/04/16 00:58:04;;;;;;;3.00;2.40;;;11.10;59.30;;;11.64;48.53;98572.91;5041275;28;20235;-44
2022/04/16 01:00:32;;;;;;;3.20;2.53;;;11.00;59.00;;;11.57;48.67;98570.00;5042046;28;20056;-44
2022/04/16 01:03:00;;;;;;;4.13;3.23;;;10.90;59.30;;;11.53;48.84;98567.75;5042179;28;20239;-45
2022/04/16 01:05:29;;;;;;;3.30;2.83;;;10.90;59.50;;;11.50;48.73;98566.22;5041814;28;20053;-45
2022/04/16 01:07:59;;;;;;;3.47;2.50;;;10.90;59.70;;;11.48;49.09;98564.69;5041867;28;20057;-46
2022/04/16 01:10:29;;;;;;;4.63;2.67;;;10.90;59.50;;;11.46;48.98;98566.63;5041867;28;20056;-49
2022/04/16 01:13:00;;;;;;;3.30;2.70;;;10.90;59.50;;;11.44;49.05;98564.13;5041960;28;20057;-44
2022/04/16 01:15:29;;;;;;;3.53;2.67;;;10.90;59.50;;;11.42;48.97;98566.09;5041556;28;20048;-44
2022/04/16 01:17:59;;;;;;;3.07;2.43;;;10.90;59.60;;;11.40;49.52;98576.06;5041894;28;20041;-46
2022/04/16 01:20:26;;;;;;;3.33;2.40;;;10.80;59.70;;;11.34;49.33;98572.16;5041680;28;20053;-44
2022/04/16 01:22:56;;;;;;;2.90;2.27;;;10.80;59.80;;;11.30;49.41;98572.56;5041826;28;20052;-47
2022/04/16 01:25:27;;;;;;;3.17;2.40;;;10.70;60.10;;;11.24;49.30;98571.31;5041899;28;20095;-47
2022/04/16 01:27:54;;;;;;;4.13;2.60;;;10.60;60.30;;;11.16;49.74;98558.69;5041813;28;20051;-46
2022/04/16 01:30:23;;;;;;;3.33;2.47;;;10.50;60.50;;;11.13;49.54;98569.66;5042212;28;20352;-45
2022/04/16 01:32:52;;;;;;;3.43;2.43;;;10.50;60.60;;;11.09;49.68;98562.94;5040778;28;20049;-46
2022/04/16 01:35:20;;;;;;;3.40;2.90;;;10.50;60.60;;;11.05;49.81;98569.53;5041624;28;20054;-46
2022/04/16 01:37:48;;;;;;;3.37;2.70;;;10.40;60.70;;;10.99;49.61;98567.41;5041450;28;20048;-44
2022/04/16 01:40:16;;;;;;;4.63;2.63;;;10.30;60.80;;;10.92;49.48;98571.63;5042138;28;20052;-46
2022/04/16 01:42:45;;;;;;;4.83;2.70;;;10.20;61.00;;;10.89;50.05;98566.56;5041720;28;20136;-46
2022/04/16 01:45:18;;;;;;;3.30;2.63;;;10.20;61.00;;;10.87;49.94;98568.53;5041722;28;20053;-45
2022/04/16 01:47:46;;;;;;;;;;;10.20;61.30;;;10.81;50.36;98581.44;5041327;28;20073;-45
2022/04/16 01:50:14;;;;;;;3.10;2.40;;;10.20;63.10;;;10.80;49.81;98577.09;5041592;28;19917;-45
2022/04/16 01:52:42;;;;;;;3.60;3.07;;;10.20;61.00;;;10.80;50.03;98586.91;5041580;28;20041;-45
2022/04/16 01:55:12;;;;;;;3.03;2.40;;;10.20;60.80;;;10.80;49.91;98592.25;5040567;28;20056;-47
2022/04/16 01:57:41;;;;;;;3.87;3.00;;;10.30;60.60;;;10.77;50.27;98592.50;5040846;28;20045;-45
2022/04/16 02:00:14;;;;;;;3.50;2.80;;;10.20;60.80;;;10.74;50.06;98587.44;5041601;28;20052;-45
2022/04/16 02:02:42;;;;;;;6.67;2.80;;;10.20;61.40;;;10.70;50.07;98592.25;5040591;28;20045;-45
2022/04/16 02:05:11;;;;;;;3.97;2.70;;;10.10;61.40;;;10.66;50.10;98598.78;5041668;28;20610;-48
2022/04/16 02:07:39;;;;;;;3.00;2.50;;;10.10;61.40;;;10.62;50.31;98590.28;5041063;28;20053;-46
2022/04/16 02:10:08;;;;;;;3.30;2.50;;;10.00;61.60;;;10.56;50.76;98595.28;5041683;28;20045;-46
2022/04/16 02:12:37;;;;;;;3.73;2.70;;;9.90;62.00;;;10.51;50.66;98586.91;5041455;28;20351;-45
2022/04/16 02:15:06;;;;;;;3.37;2.70;;;9.80;62.20;;;10.43;50.60;98592.91;5041803;28;20343;-45
2022/04/16 02:17:36;;;;;;;4.13;2.73;;;9.70;62.90;;;10.34;50.75;98591.06;5040839;28;20041;-45
2022/04/16 02:20:09;;;;;;;3.33;2.37;;;9.50;63.30;;;10.25;50.87;98577.56;5044167;28;20049;-44
2022/04/16 02:22:52;;;;;;;4.18;2.70;;;9.50;64.10;;;10.19;51.41;98577.25;5045101;28;20045;-44
2022/04/16 02:25:24;;;;;;;3.37;2.77;;;9.50;63.80;;;10.17;51.24;98576.53;5045066;28;20334;-47
2022/04/16 02:27:52;;;;;;;4.60;2.67;;;9.50;63.10;;;10.13;51.29;98577.78;5045190;28;20053;-44
2022/04/16 02:30:20;;;;;;;3.27;2.60;;;9.40;63.00;;;10.12;51.35;98579.63;5044631;28;20339;-45
2022/04/16 02:32:53;;;;;;;3.47;2.53;;;9.50;62.90;;;10.13;51.25;98575.97;5044951;28;20239;-44
2022/04/16 02:35:23;;;;;;;3.05;2.30;;;9.50;62.80;;;10.14;50.99;98571.47;5044521;28;20045;-46
2022/04/16 02:37:51;;;;;;;3.57;2.60;;;9.60;62.70;;;10.14;51.20;98574.16;5043659;28;20362;-47
2022/04/16 02:40:19;;;;;;;3.83;2.40;;;9.60;62.40;;;10.12;51.05;98573.44;5045192;28;20049;-47
2022/04/16 02:42:47;;;;;;;4.10;3.00;;;9.50;62.70;;;10.13;51.52;98583.13;5044809;28;20051;-45
2022/04/16 02:48:04;;;;;;;3.73;2.93;;;9.50;62.90;;;10.11;51.38;98583.25;5043901;28;20056;-45
2022/04/16 02:50:32;;;;;;;4.27;3.40;;;9.50;63.00;;;10.09;51.48;98584.38;5044517;28;20051;-44
2022/04/16 02:53:02;;;;;;;3.60;2.57;;;9.50;62.90;;;10.06;51.66;98588.13;5060288;28;20057;-44
2022/04/16 02:55:30;;;;;;;3.90;2.80;;;9.40;62.90;;;10.03;51.37;98589.25;5044421;28;20057;-47
2022/04/16 02:57:57;;;;;;;3.00;2.60;;;9.40;62.90;;;10.01;51.32;98583.22;5044715;28;20051;-45
2022/04/16 03:00:26;;;;;;;3.90;2.80;;;9.40;63.10;;;9.97;51.64;98583.63;5044514;28;20052;-48
2022/04/16 03:02:54;;;;;;;3.80;2.60;;;9.30;63.60;;;9.93;51.60;98593.69;5044921;28;20348;-46
2022/04/16 03:05:22;;;;;;;4.37;2.67;;;9.30;63.60;;;9.92;51.57;98596.47;5044529;28;20393;-44
2022/04/16 03:07:50;;;;;;;3.97;2.70;;;9.30;63.60;;;9.84;51.57;98592.66;5042873;28;20049;-47
2022/04/16 03:10:18;;;;;;;4.33;3.20;;;9.10;64.00;;;9.77;51.73;98604.81;5044566;28;20060;-48
2022/04/16 03:12:53;;;;;;;4.43;3.40;;;9.00;64.40;;;9.72;51.75;98603.53;5044198;28;20348;-45
2022/04/16 03:18:09;;;;;;;2.83;2.50;;;9.00;64.40;;;9.69;52.13;98604.63;5043941;28;20331;-46
2022/04/16 03:20:40;;;;;;;3.53;3.10;;;9.00;64.30;;;9.69;52.09;98590.50;5043042;28;20041;-45
2022/04/16 03:23:09;;;;;;;4.47;3.07;;;9.10;64.30;;;9.66;52.32;98597.75;5044010;28;20045;-45
2022/04/16 03:25:41;;;;;;;4.60;3.03;;;9.00;64.40;;;9.61;52.32;98593.81;5043346;28;20059;-45
2022/04/16 03:28:10;;;;;;;3.27;2.60;;;9.00;65.20;;;9.55;52.35;98595.19;5043676;28;20057;-49
2022/04/16 03:30:38;;;;;;;4.10;2.93;;;8.90;65.20;;;9.50;52.51;98594.75;5043012;28;20336;-45
2022/04/16 03:33:06;;;;;;;4.83;2.90;;;8.80;65.50;;;9.46;52.53;98590.66;5043709;28;20052;-46
2022/04/16 03:35:35;;;;;;;2.90;2.50;;;8.80;65.70;;;9.42;52.74;98581.25;5043228;28;20041;-46
2022/04/16 03:38:03;;;;;;;2.90;2.40;;;8.80;65.80;;;9.46;52.92;98582.69;5043968;28;20042;-45
2022/04/16 03:40:31;;;;;;;3.90;2.90;;;8.90;65.80;;;9.46;52.86;98588.84;5043647;28;20045;-45
2022/04/16 03:43:01;;;;;;;2.93;2.50;;;8.90;65.60;;;9.49;52.87;98586.91;5043605;28;20045;-45
2022/04/16 03:45:34;;;;;;;3.17;2.50;;;8.90;65.70;;;9.48;52.99;98583.41;5043266;28;20366;-44
2022/04/16 03:48:05;;;;;;;3.03;2.72;;;8.90;66.30;;;9.50;53.11;98584.13;5042984;28;20059;-45
2022/04/16 03:50:35;;;;;;;4.30;3.13;;;8.90;66.10;;;9.51;53.07;98579.63;5043473;28;20049;-44
2022/04/16 03:53:03;;;;;;;3.67;2.70;;;8.90;66.10;;;9.52;53.11;98578.66;5043265;28;20049;-44
2022/04/16 04:01:07;;;;;;;3.10;2.63;;;8.80;66.40;;;9.45;53.16;98592.47;5043342;28;20045;-43
2022/04/16 04:03:36;;;;;;;5.73;3.60;;;8.90;65.80;;;9.48;53.17;98590.53;5042939;28;20047;-44
2022/04/16 04:06:05;;;;;;;3.97;3.57;;;8.90;65.90;;;9.48;53.38;98596.69;5042775;28;20076;-44
2022/04/16 04:08:33;;;;;;;3.90;3.33;;;8.90;65.70;;;9.44;53.52;98597.91;5043344;28;20056;-48
2022/04/16 04:11:03;;;;;;;4.10;3.00;;;8.80;66.00;;;9.45;53.59;98600.44;5041997;28;20340;-45
2022/04/16 04:13:31;;;;;;;4.43;2.83;;;8.90;66.20;;;9.44;53.38;98596.13;5043293;28;20053;-48
2022/04/16 04:15:59;;;;;;;3.87;2.97;;;8.80;66.20;;;9.44;53.14;98604.09;5042593;28;20048;-48
2022/04/16 04:18:27;;;;;;;3.20;2.47;;;8.80;66.00;;;9.47;53.37;98595.00;5042940;28;20045;-45
2022/04/16 04:20:56;;;;;;;3.53;3.10;;;9.00;65.90;;;9.50;53.47;98613.34;5042983;28;20340;-44
2022/04/16 04:23:24;;;;;;;3.33;2.50;;;9.00;66.00;;;9.52;53.72;98618.53;5042299;28;20056;-45
2022/04/16 04:25:52;;;;;;;3.90;2.57;;;9.00;65.90;;;9.58;53.68;98626.00;5043153;28;20061;-46
2022/04/16 04:28:20;;;;;;;3.60;3.30;;;9.10;65.70;;;9.64;53.83;98628.13;5041642;28;20056;-45
2022/04/16 04:30:48;;;;;;;4.43;3.00;;;9.20;66.00;;;9.68;53.88;98618.06;5043473;28;20266;-44
2022/04/16 04:33:16;;;;;;;3.43;2.80;;;9.30;66.00;;;9.69;53.76;98625.06;5042609;28;20250;-45
2022/04/16 04:35:44;;;;;;;4.23;2.90;;;9.20;66.00;;;9.73;53.60;98627.34;5041187;28;20247;-45
2022/04/16 04:38:12;;;;;;;4.17;2.90;;;9.30;65.80;;;9.75;53.77;98620.06;5041555;28;20045;-43
2022/04/16 04:40:40;;;;;;;3.07;2.70;;;9.30;66.10;;;9.79;53.62;98624.16;5041459;28;20236;-45
2022/04/16 04:43:07;;;;;;;3.67;2.60;;;9.30;65.60;;;9.83;53.69;98628.22;5058771;28;20055;-46
2022/04/16 04:45:35;;;;;;;4.33;3.00;;;9.40;65.60;;;9.85;53.73;98628.94;5042022;28;20057;-44
2022/04/16 04:48:04;;;;;;;3.20;2.43;;;9.40;65.30;;;9.88;53.73;98629.66;5042073;28;20354;-45
2022/04/16 04:50:31;;;;;;;3.80;3.17;;;9.50;65.30;;;9.84;53.89;98637.88;5042125;28;20050;-44
2022/04/16 04:52:59;;;;;;;4.40;3.30;;;9.40;65.60;;;9.84;53.61;98631.72;5042415;28;20324;-46
2022/04/16 04:55:29;;;;;;;4.93;3.23;;;9.40;66.00;;;9.85;53.96;98630.75;5040743;28;20051;-44
2022/04/16 04:57:56;;;;;;;4.17;3.23;;;9.40;65.80;;;9.87;53.92;98636.78;5041298;28;20057;-46
2022/04/16 05:00:24;;;;;;;5.03;3.33;;;9.40;65.60;;;9.88;53.82;98632.31;5042666;28;20053;-45
2022/04/16 05:02:52;;;;;;;5.00;3.60;;;9.50;65.60;;;9.85;53.50;98641.41;5042286;28;20064;-44
2022/04/16 05:05:20;;;;;;;4.33;3.10;;;9.40;65.60;;;9.86;53.73;98640.41;5041955;28;20045;-48
2022/04/16 05:07:48;;;;;;;4.37;3.03;;;9.40;65.70;;;9.82;53.82;98646.97;5042337;28;20050;-44
2022/04/16 05:10:16;;;;;;;3.93;2.87;;;9.30;66.10;;;9.82;54.17;98645.16;5042009;28;20288;-46
2022/04/16 05:12:44;;;;;;;3.73;3.00;;;9.30;66.20;;;9.79;53.89;98645.44;5042119;28;20052;-44
2022/04/16 05:15:12;;;;;;;4.63;3.10;;;9.30;66.40;;;9.78;53.99;98649.03;5041985;28;20059;-47
2022/04/16 05:17:40;;;;;;;4.03;2.80;;;9.30;66.70;;;9.79;54.10;98648.09;5041539;28;20064;-49
2022/04/16 05:20:09;;;;;;;3.77;3.37;;;9.30;66.30;;;9.85;54.27;98652.03;5041761;28;20037;-49
2022/04/16 05:22:38;;;;;;;4.63;3.10;;;9.40;66.20;;;9.90;54.09;98660.44;5042034;28;20056;-45
2022/04/16 05:25:06;;;;;;;3.90;2.87;;;9.50;66.10;;;9.92;54.13;98652.34;5041710;28;20315;-47
2022/04/16 05:27:35;;;;;;;4.87;3.13;;;9.50;66.20;;;9.96;54.22;98649.28;5040283;28;20239;-44
2022/04/16 05:30:12;;;;;;;3.17;2.53;;;9.60;66.10;;;10.01;54.41;98652.38;5042455;28;20065;-44
2022/04/16 05:32:42;;;;;;;3.40;3.00;;;9.60;66.00;;;10.04;53.93;98651.25;5041966;28;20045;-46
2022/04/16 05:35:11;;;;;;;3.83;3.07;;;9.70;65.90;;;10.08;54.28;98654.50;5042208;28;20057;-46
2022/04/16 05:37:40;;;;;;;5.67;2.93;;;9.70;65.70;;;10.09;54.18;98657.03;5041527;28;20045;-47
2022/04/16 05:40:10;;;;;;;5.33;3.37;;;9.70;65.70;;;10.12;54.26;98662.09;5040263;28;20053;-48
2022/04/16 05:42:42;;;;;;;5.73;4.30;;;9.80;65.50;;;10.16;54.23;98660.03;5041688;28;20045;-44
2022/04/16 05:45:14;;;;;;;4.43;3.10;;;9.80;65.40;;;10.18;53.95;98658.06;5041732;28;20045;-45
2022/04/16 05:47:44;;;;;;;6.07;3.23;;;9.80;65.20;;;10.21;54.41;98671.09;5040325;28;20060;-45
2022/04/16 05:50:14;;;;;;;4.67;3.13;;;9.90;65.60;;;10.26;54.08;98658.25;5041543;28;20050;-44
2022/04/16 05:52:41;;;;;;;4.87;3.20;;;10.00;65.60;;;10.32;54.25;98664.88;5041543;28;20057;-48
2022/04/16 05:55:11;;;;;;;4.60;3.23;;;10.00;65.20;;;10.35;53.85;98656.59;5045837;28;20348;-45
2022/04/16 05:57:39;;;;;;;4.57;3.33;;;10.10;65.30;;;10.37;53.97;98659.97;5044101;28;20044;-46
2022/04/16 06:00:08;;;;;;;4.47;3.30;;;10.00;65.10;;;10.42;53.90;98663.91;5045419;28;20045;-47
2022/04/16 06:02:42;;;;;;;4.40;3.00;;;10.10;65.10;;;10.47;54.11;98668.00;5045597;28;20349;-45
2022/04/16 06:05:10;;;;;;;5.07;3.03;;;10.20;64.80;;;10.49;53.75;98674.03;5045393;28;20049;-46
2022/04/16 06:07:38;;;;;;;4.03;3.40;;;10.20;65.00;;;10.49;54.17;98682.00;5045792;28;20059;-48
2022/04/16 06:10:06;;;;;;;3.47;3.07;;;10.20;65.10;;;10.51;53.96;98686.25;5045412;28;20053;-46
2022/04/16 06:12:34;;;;;;;3.70;2.83;;;10.20;65.30;;;10.52;53.86;98684.41;5045460;28;20050;-44
2022/04/16 06:15:02;;;;;;;5.83;3.40;;;10.20;65.50;;;10.51;53.79;98698.72;5045706;28;20049;-45
2022/04/16 06:17:30;;;;;;;3.73;3.17;;;10.10;65.80;;;10.46;54.26;98696.44;5044765;28;20041;-45
2022/04/16 06:19:58;;;;;;;8.70;4.57;;;10.10;66.20;;;10.47;53.99;98695.47;5045613;28;20266;-46
2022/04/16 06:22:26;;;;;;;6.17;5.07;;;10.10;65.90;;;10.48;54.07;98699.81;5044741;28;20041;-45
2022/04/16 06:24:53;;;;;;;4.53;3.50;;;10.20;65.70;;;10.51;54.32;98688.91;5045136;28;20050;-46
2022/04/16 06:27:22;;;;;;;4.90;3.30;;;10.20;65.60;;;10.52;54.49;98690.56;5044767;28;20049;-45
2022/04/16 06:29:50;;;;;;;4.70;3.27;;;10.20;65.70;;;10.56;53.99;98691.97;5043901;28;20045;-44
2022/04/16 06:32:18;;;;;;;5.40;3.93;;;10.30;65.60;;;10.61;54.12;98696.91;5043998;28;20045;-47
2022/04/16 06:34:46;;;;;;;3.67;3.03;;;10.30;65.60;;;10.67;54.50;98703.53;5044719;28;20045;-48
2022/04/16 06:37:14;;;;;;;3.80;3.30;;;10.40;65.40;;;10.65;53.95;98701.00;5044373;28;20271;-45
2022/04/16 06:39:42;;;;;;;5.50;3.13;;;10.50;65.10;;;10.66;54.50;98704.50;5044888;28;20050;-45
2022/04/16 06:42:09;;;;;;;4.70;3.30;;;10.50;65.10;;;10.70;54.54;98693.44;5045394;28;20046;-47
2022/04/16 06:44:37;;;;;;;5.70;3.47;;;10.60;64.90;;;10.75;54.57;98695.69;5044770;28;20056;-45
2022/04/16 06:47:05;;;;;;;4.47;3.60;;;10.60;65.20;;;10.78;54.15;98696.25;5043350;28;20251;-44
2022/04/16 06:49:33;;;;;;;4.50;3.83;;;10.60;65.30;;;10.81;54.44;98703.97;5045153;28;20053;-46
2022/04/16 06:52:01;;;;;;;4.37;2.90;;;10.60;65.10;;;10.86;54.29;98700.03;5044513;28;20059;-45
2022/04/16 06:54:28;;;;;;;4.97;3.50;;;10.70;65.40;;;10.87;54.75;98707.06;5043392;28;20057;-46
2022/04/16 06:56:56;;;;;;;5.27;3.63;;;10.70;65.40;;;10.90;54.54;98707.63;5042792;28;20243;-46
2022/04/16 06:59:24;;;;;;;4.77;3.67;;;10.70;65.70;;;10.95;54.54;98702.75;5043100;28;20071;-45
2022/04/16 07:01:52;;;;;;;3.90;3.10;;;10.70;65.70;;;10.99;54.37;98705.97;5043299;28;20104;-46
2022/04/16 07:04:20;;;;;;;5.70;3.63;;;10.80;65.30;;;10.98;54.68;98713.13;5044597;28;20048;-45
2022/04/16 07:06:48;;;;;;;4.97;3.43;;;10.80;65.00;;;10.95;54.05;98713.41;5042582;28;20041;-46
2022/04/16 07:09:16;;;;;;;6.27;3.30;;;10.90;64.60;;;10.96;54.57;98707.09;5044707;28;20248;-48
2022/04/16 07:11:43;;;;;;;6.97;4.17;;;11.00;64.60;;;11.01;54.72;98718.19;5044238;28;20046;-45
2022/04/16 07:14:11;;;;;;;5.23;3.40;;;11.00;64.90;;;11.02;54.60;98711.03;5044495;28;20053;-45
2022/04/16 07:16:39;;;;;;;4.53;3.37;;;11.00;64.60;;;11.07;54.30;98719.47;5043711;28;20048;-47
2022/04/16 07:19:08;;;;;;;7.30;4.03;;;11.10;64.60;;;11.12;54.39;98716.38;5043959;28;20044;-45
2022/04/16 07:21:36;;;;;;;6.27;3.40;;;11.10;64.90;;;11.10;54.34;98710.34;5044073;28;20041;-45
2022/04/16 07:24:04;;;;;;;6.27;3.60;;;11.00;65.10;;;11.14;54.58;98719.72;5043078;28;20056;-47
2022/04/16 07:26:32;;;;;;;5.43;3.87;;;11.00;65.50;;;11.21;54.44;98727.03;5043545;28;20228;-45
2022/04/16 07:29:00;;;;;;;6.67;3.70;;;11.10;65.50;;;11.26;54.36;98723.09;5044236;28;20053;-47
2022/04/16 07:31:27;;;;;;;5.47;3.80;;;11.10;65.40;;;11.23;54.55;98725.06;5042635;28;20050;-47
2022/04/16 07:33:55;;;;;;;4.33;3.50;;;11.10;65.00;;;11.23;54.63;98718.91;5043948;28;20055;-47
2022/04/16 07:36:23;;;;;;;5.90;3.60;;;11.20;64.70;;;11.26;54.31;98720.44;5043397;28;20049;-45
2022/04/16 07:38:51;;;;;;;6.37;4.20;;;11.10;65.20;;;11.25;54.84;98719.59;5044066;28;20049;-47
2022/04/16 07:41:19;;;;;;;6.40;3.50;;;11.10;65.50;;;11.26;54.86;98731.09;5043723;28;20046;-45
2022/04/16 07:43:46;;;;;;;6.67;4.50;;;11.10;65.50;;;11.27;54.88;98722.97;5043624;28;20236;-45
2022/04/16 07:46:18;;;;;;;7.53;4.50;;;11.20;65.60;;;11.13;55.28;98728.72;5042196;28;20041;-46
2022/04/16 07:48:46;;;;;;;6.83;4.93;;;11.20;65.60;;;11.14;55.51;98728.56;5043584;28;20049;-46
2022/04/16 07:51:14;;;;;;;9.67;4.37;;;11.20;65.60;;;11.20;55.55;98730.66;5043630;28;20053;-46
2022/04/16 07:53:42;;;;;;;6.78;5.00;;;11.30;65.70;;;11.18;55.75;98734.47;5043671;28;20041;-46
2022/04/16 07:56:10;;;;;;;6.70;4.40;;;11.40;65.70;;;11.28;55.88;98742.47;5043365;28;20057;-48
2022/04/16 07:58:37;;;;;;;6.70;4.67;;;11.40;65.90;;;11.35;55.66;98747.09;5043155;28;20247;-45
2022/04/16 08:01:06;;;;;;;6.37;4.50;;;11.50;65.60;;;11.45;55.71;98738.28;5043372;28;20365;-46
2022/04/16 08:03:34;;;;;;;7.93;4.73;;;11.60;65.40;;;11.47;55.64;98744.31;5042406;28;20231;-47
2022/04/16 08:06:03;;;;;;;7.03;4.80;;;11.60;65.80;;;11.53;55.43;98746.41;5043210;28;20060;-46
2022/04/16 08:08:30;;;;;;;7.27;5.47;;;11.60;66.00;;;11.54;55.51;98738.28;5043173;28;20340;-45
2022/04/16 08:10:58;;;;;;;7.53;5.18;;;11.70;65.90;;;11.59;55.59;98733.38;5043521;28;20234;-46
2022/04/16 08:13:26;;;;;;;6.22;4.55;;;11.60;65.90;;;11.62;55.86;98750.91;5042987;28;20057;-45
2022/04/16 08:15:54;;;;;;;5.40;4.40;;;11.60;66.60;;;11.57;55.97;98756.69;5042631;28;20343;-46
2022/04/16 08:18:22;;;;;;;6.80;5.60;;;11.50;67.10;;;11.58;55.70;98762.84;5042350;28;20045;-48
2022/04/16 08:20:50;;;;;;;6.78;4.30;;;11.60;66.60;;;11.64;55.63;98762.28;5042873;28;20045;-48
2022/04/16 08:23:18;;;;;;;6.47;4.45;;;11.70;66.20;;;11.75;55.54;98766.66;5041781;28;20052;-46
2022/04/16 08:25:46;;;;;;;13.93;4.18;;;11.80;65.80;;;11.78;55.78;98755.66;5041996;28;20057;-49
2022/04/16 08:28:14;;;;;;;8.77;4.75;;;11.80;66.20;;;11.84;55.49;98755.09;5042820;28;20049;-47
2022/04/16 08:30:42;;;;;;;5.32;4.50;;;12.00;65.60;;;11.91;55.23;98753.59;5042030;28;20068;-47
2022/04/16 08:33:17;;;;;;;5.95;4.43;;;12.10;65.30;;;11.96;54.83;98764.69;5042736;28;20057;-48
2022/04/16 08:35:46;;;;;;;6.80;4.72;;;12.20;64.50;;;12.01;55.08;98762.41;5042296;28;20057;-46
2022/04/16 08:38:14;;;;;;;6.88;4.80;;;12.20;64.00;;;11.99;54.85;98760.88;5042509;28;20338;-45
2022/04/16 08:40:42;;;;;;;8.45;5.43;;;12.30;63.40;;;11.92;54.36;98765.97;5042765;28;20045;-45
2022/04/16 08:43:14;;;;;;;8.85;5.10;;;12.10;63.30;;;11.89;54.64;98760.88;5043010;28;20344;-46
2022/04/16 08:45:42;;;;;;;5.03;3.67;;;12.10;63.50;;;11.82;54.86;98765.94;5042423;28;20075;-47
2022/04/16 08:48:14;;;;;;;6.28;5.20;;;12.10;63.50;;;11.74;54.72;98768.44;5040071;28;20605;-47
2022/04/16 08:50:43;;;;;;;6.38;4.97;;;11.80;64.40;;;11.81;54.56;98766.06;5041418;28;20243;-46
2022/04/16 08:53:11;;;;;;;6.75;4.50;;;11.90;64.40;;;11.86;54.48;98770.97;5042428;28;20053;-46
2022/04/16 08:55:39;;;;;;;6.65;5.20;;;12.00;64.10;;;11.84;54.85;98768.44;5040968;28;20051;-46
2022/04/16 08:58:07;;;;;;;8.23;5.30;;;12.00;63.90;;;11.83;54.77;98775.59;5041779;28;20049;-48
2022/04/16 09:00:35;;;;;;;8.13;5.60;;;12.00;64.00;;;11.89;54.55;98774.22;5041127;28;20045;-47
2022/04/16 09:03:06;;;;;;;7.35;4.88;;;12.00;63.90;;;11.96;54.43;98780.69;5042269;28;20049;-48
2022/04/16 09:05:34;;;;;;;8.05;5.53;;;12.10;63.80;;;11.96;54.41;98775.34;5041947;28;20061;-51
2022/04/16 09:08:04;;;;;;;6.63;4.72;;;12.20;63.40;;;12.01;54.22;98778.41;5042086;28;20052;-46
2022/04/16 09:10:36;;;;;;;6.80;5.47;;;12.20;62.90;;;12.08;54.05;98772.50;5042202;28;20063;-48
2022/04/16 09:13:05;;;;;;;7.85;5.28;;;12.20;63.30;;;12.18;54.17;98766.19;5042154;28;20051;-51
2022/04/16 09:15:34;;;;;;;7.45;4.88;;;12.40;63.30;;;12.32;53.99;98772.88;5041633;28;20057;-53
2022/04/16 09:18:07;;;;;;;7.95;5.40;;;12.50;62.80;;;12.31;53.62;98775.69;5040451;28;20051;-51
2022/04/16 09:20:38;;;;;;;7.28;4.95;;;12.50;62.40;;;12.28;53.72;98774.16;5042306;28;20255;-49
2022/04/16 09:23:21;;;;;;;5.97;4.65;;;12.50;62.30;;;12.36;53.64;98768.94;5042875;28;20068;-50
2022/04/16 09:25:50;;;;;;;6.43;5.03;;;12.50;61.70;;;12.38;53.35;98768.78;5041444;28;20247;-52
2022/04/16 09:28:21;;;;;;;7.47;5.38;;;12.60;61.40;;;12.35;53.18;98777.94;5041219;28;20058;-48
2022/04/16 09:30:55;;;;;;;9.10;5.25;;;12.60;61.20;;;12.39;53.39;98775.84;5041071;28;20055;-48
2022/04/16 09:33:24;;;;;;;6.57;4.57;;;12.60;61.30;;;12.42;53.20;98770.19;5041793;28;20045;-51
2022/04/16 09:35:55;;;;;;;7.32;5.15;;;12.60;61.40;;;12.49;53.08;98770.47;5041445;28;20053;-48
2022/04/16 09:38:27;;;;;;;7.35;5.30;;;12.60;61.60;;;12.58;52.46;98772.22;5041845;28;20062;-48
2022/04/16 09:40:55;;;;;;;6.53;5.40;;;12.70;61.20;;;12.54;52.72;98769.03;5041961;28;20041;-52
2022/04/16 09:43:22;;;;;;;7.40;5.60;;;12.70;60.50;;;12.61;52.46;98775.47;5041869;28;20235;-48
2022/04/16 09:45:50;;;;;;;7.95;4.68;;;12.80;60.50;;;12.70;52.56;98773.75;5041528;28;20239;-50
2022/04/16 09:48:20;;;;;;;8.25;5.75;;;12.80;60.50;;;12.81;52.38;98767.34;5040637;28;20071;-49
2022/04/16 09:50:51;;;;;;;10.27;6.85;;;12.90;60.70;;;12.93;52.42;98776.88;5040613;28;20060;-48
2022/04/16 09:53:21;;;;;;;8.25;5.80;;;13.10;60.30;;;12.99;51.61;98768.25;5041771;28;20056;-49
2022/04/16 09:55:50;;;;;;;8.80;5.43;;;13.20;58.90;;;13.09;51.57;98775.38;5040166;28;20328;-49
2022/04/16 09:58:45;;;;;;;7.40;5.28;;;13.30;59.10;;;13.19;51.57;98778.84;5040644;28;20054;-49
2022/04/16 10:01:14;;;;;;;8.68;6.35;;;13.40;58.20;;;13.28;51.10;98780.63;5040958;28;20052;-48
2022/04/16 10:03:44;;;;;;;5.43;4.50;;;13.50;58.60;;;13.39;50.70;98785.75;5041888;28;20235;-48
2022/04/16 10:06:13;;;;;;;7.40;5.30;;;13.60;57.70;;;13.48;50.20;98786.69;5040281;28;20057;-43
2022/04/16 10:08:42;;;;;;;6.72;5.05;;;13.70;57.10;;;13.59;50.25;98794.50;5041830;28;20377;-44
2022/04/16 10:11:19;;;;;;;6.38;5.15;;;13.80;56.40;;;13.66;49.46;98789.38;5040933;28;20347;-50
2022/04/16 10:14:05;;;;;;;6.47;4.50;;;13.90;56.10;;;13.74;48.37;98797.47;5025442;28;20053;-51
2022/04/16 10:17:09;;;;;;;7.78;5.47;;;14.00;53.90;;;13.67;47.64;98792.91;5040286;28;20049;-50
2022/04/16 10:19:46;;;;;;;7.63;5.80;;;13.90;53.80;;;13.72;48.28;98801.31;5041388;28;20041;-51
2022/04/16 10:22:27;;;;;;;8.77;6.05;;;13.90;55.60;;;13.78;49.10;98801.53;5040386;28;20055;-54
2022/04/16 10:24:58;;;;;;;8.70;5.72;;;13.90;54.90;;;13.87;49.17;98804.28;5040256;28;20051;-52
2022/04/16 10:27:29;;;;;;;6.63;5.13;;;14.00;56.00;;;13.95;48.83;98805.19;5040217;28;20048;-51
2022/04/16 10:30:02;;;;;;;6.60;5.00;;;14.10;55.50;;;13.97;48.46;98811.22;5041731;28;20061;-53
2022/04/16 10:32:44;;;;;;;6.18;4.78;;;14.20;54.40;;;13.88;45.53;98814.84;5041263;28;20083;-52
2022/04/16 10:35:17;;;;;;;7.93;5.40;;;14.20;50.90;;;13.80;47.22;98804.03;5041437;28;20048;-51
2022/04/16 10:37:49;;;;;;;5.75;3.95;;;14.10;52.40;;;13.89;47.71;98805.81;5040190;28;20357;-53
2022/04/16 10:40:23;;;;;;;7.03;4.47;;;14.10;53.00;;;13.99;47.35;98803.88;5042735;28;20252;-54
2022/04/16 10:42:59;;;;;;;5.63;4.43;;;14.10;52.30;;;13.99;46.80;98805.72;5027435;28;20045;-49